createdAt,value
2022-07-27T00:01:28.858Z,5.60
2022-07-27T00:04:56.350Z,6.00
2022-07-27T00:08:24.529Z,4.30
2022-07-27T00:11:52.479Z,2.70
2022-07-27T00:15:19.751Z,3.80
2022-07-27T00:18:46.942Z,5.70
2022-07-27T00:22:14.073Z,5.30
2022-07-27T00:25:41.139Z,2.70
2022-07-27T00:29:08.864Z,2.60
2022-07-27T00:32:37.220Z,5.10
2022-07-27T00:36:04.056Z,4.00
2022-07-27T00:39:32.339Z,2.70
2022-07-27T00:42:59.758Z,3.80
2022-07-27T00:46:28.230Z,4.70
2022-07-27T00:49:55.892Z,3.70
2022-07-27T00:53:23.387Z,6.90
2022-07-27T00:56:51.262Z,3.50
2022-07-27T01:00:24.140Z,5.40
2022-07-27T01:03:51.621Z,8.30
2022-07-27T01:07:21.821Z,5.20
2022-07-27T01:10:54.030Z,7.20
2022-07-27T01:14:23.123Z,3.50
2022-07-27T01:17:57.794Z,5.50
2022-07-27T01:21:25.111Z,3.60
2022-07-27T01:25:01.151Z,2.50
2022-07-27T01:28:28.701Z,1.50
2022-07-27T01:31:57.183Z,4.80
2022-07-27T01:35:24.636Z,5.50
2022-07-27T01:38:54.174Z,1.90
2022-07-27T01:42:22.095Z,2.40
2022-07-27T01:45:52.217Z,5.20
2022-07-27T01:49:21.081Z,2.50
2022-07-27T01:52:49.094Z,3.10
2022-07-27T01:56:16.669Z,2.00
2022-07-27T01:59:43.921Z,6.10
2022-07-27T02:03:13.119Z,4.20
2022-07-27T02:06:40.355Z,5.30
2022-07-27T02:10:08.834Z,4.50
2022-07-27T02:13:36.246Z,5.10
2022-07-27T02:17:03.368Z,3.80
2022-07-27T02:20:32.225Z,2.70
2022-07-27T02:23:59.746Z,3.30
2022-07-27T02:27:29.574Z,2.90
2022-07-27T02:30:56.975Z,5.80
2022-07-27T02:34:24.039Z,2.60
2022-07-27T02:37:56.905Z,3.90
2022-07-27T02:41:24.196Z,2.30
2022-07-27T02:44:53.546Z,3.80
2022-07-27T02:48:20.760Z,6.60
2022-07-27T02:51:50.098Z,3.50
2022-07-27T02:55:17.599Z,8.30
2022-07-27T02:58:44.901Z,2.80
2022-07-27T03:02:12.880Z,5.10
2022-07-27T03:05:41.127Z,4.10
2022-07-27T03:09:08.684Z,2.90
2022-07-27T03:12:35.993Z,4.40
2022-07-27T03:16:02.848Z,3.30
2022-07-27T03:19:30.396Z,4.00
2022-07-27T03:22:58.123Z,2.00
2022-07-27T03:26:25.866Z,4.50
2022-07-27T03:29:53.310Z,5.50
2022-07-27T03:33:20.615Z,3.80
2022-07-27T03:36:48.654Z,4.30
2022-07-27T03:40:15.851Z,6.40
2022-07-27T03:43:43.253Z,10.00
2022-07-27T03:47:10.578Z,9.50
2022-07-27T03:50:42.760Z,6.00
2022-07-27T03:54:11.308Z,9.40
2022-07-27T03:57:39.092Z,5.70
2022-07-27T04:01:07.592Z,10.50
2022-07-27T04:04:35.183Z,6.60
2022-07-27T04:08:02.625Z,4.90
2022-07-27T04:11:30.199Z,9.00
2022-07-27T04:14:57.257Z,10.00
2022-07-27T04:18:24.566Z,7.90
2022-07-27T04:21:52.160Z,5.70
2022-07-27T04:25:19.177Z,12.90
2022-07-27T04:28:46.535Z,10.20
2022-07-27T04:32:14.008Z,6.80
2022-07-27T04:35:41.295Z,6.80
2022-07-27T04:39:09.166Z,7.40
2022-07-27T04:42:36.656Z,9.70
2022-07-27T04:46:15.872Z,9.50
2022-07-27T04:49:42.778Z,6.20
2022-07-27T04:53:11.007Z,11.00
2022-07-27T04:56:38.292Z,7.40
2022-07-27T05:00:06.746Z,6.60
2022-07-27T05:03:33.922Z,9.60
2022-07-27T05:07:05.796Z,9.60
2022-07-27T05:10:33.542Z,9.80
2022-07-27T05:14:00.917Z,9.00
2022-07-27T05:17:28.357Z,9.30
2022-07-27T05:20:55.857Z,12.00
2022-07-27T05:24:24.796Z,8.40
2022-07-27T05:27:54.460Z,7.10
2022-07-27T05:31:22.660Z,8.30
2022-07-27T05:34:54.245Z,7.10
2022-07-27T05:38:22.641Z,11.40
2022-07-27T05:41:49.889Z,10.90
2022-07-27T05:45:18.192Z,7.20
2022-07-27T05:48:45.667Z,8.60
2022-07-27T05:52:13.510Z,13.50
2022-07-27T05:55:58.341Z,6.20
2022-07-27T05:59:26.774Z,7.50
2022-07-27T06:02:55.156Z,9.20
2022-07-27T06:06:40.602Z,6.50
2022-07-27T06:10:09.968Z,9.40
2022-07-27T06:13:47.583Z,13.40
2022-07-27T06:17:15.998Z,9.80
2022-07-27T06:20:43.916Z,6.90
2022-07-27T06:24:11.945Z,11.60
2022-07-27T06:27:41.998Z,7.90
2022-07-27T06:31:09.405Z,8.40
2022-07-27T06:34:42.434Z,5.70
2022-07-27T06:38:14.057Z,9.90
2022-07-27T06:41:41.660Z,9.90
2022-07-27T06:45:12.981Z,11.00
2022-07-27T06:48:40.086Z,10.00
2022-07-27T06:52:07.997Z,10.90
2022-07-27T06:55:35.152Z,10.30
2022-07-27T06:59:03.850Z,13.30
2022-07-27T07:02:31.507Z,8.40
2022-07-27T07:05:59.010Z,10.40
2022-07-27T07:09:27.969Z,10.00
2022-07-27T07:12:57.180Z,7.50
2022-07-27T07:16:27.149Z,10.70
2022-07-27T07:19:54.676Z,6.20
2022-07-27T07:23:22.394Z,11.00
2022-07-27T07:26:49.946Z,5.60
2022-07-27T07:30:20.137Z,9.30
2022-07-27T07:33:47.388Z,6.60
2022-07-27T07:37:16.381Z,9.90
2022-07-27T07:40:48.058Z,5.40
2022-07-27T07:44:15.734Z,7.90
2022-07-27T07:47:44.991Z,8.10
2022-07-27T07:51:12.932Z,7.40
2022-07-27T07:54:41.119Z,9.00
2022-07-27T07:58:08.158Z,8.20
2022-07-27T08:01:36.191Z,6.50
2022-07-27T08:05:03.575Z,7.00
2022-07-27T08:08:34.144Z,6.70
2022-07-27T08:12:05.223Z,6.30
2022-07-27T08:15:35.936Z,5.30
2022-07-27T08:19:03.443Z,7.90
2022-07-27T08:22:30.807Z,3.20
2022-07-27T08:25:58.319Z,5.90
2022-07-27T08:29:36.755Z,5.10
2022-07-27T08:33:06.519Z,4.60
2022-07-27T08:36:34.298Z,3.90
2022-07-27T08:44:00.866Z,5.30
2022-07-27T08:47:28.959Z,6.70
2022-07-27T08:50:56.936Z,5.20
2022-07-27T08:54:25.777Z,7.10
2022-07-27T08:57:53.415Z,5.30
2022-07-27T09:01:20.727Z,6.40
2022-07-27T09:04:48.374Z,6.70
2022-07-27T09:08:18.182Z,4.50
2022-07-27T09:11:45.437Z,3.10
2022-07-27T09:15:16.120Z,6.90
2022-07-27T09:18:43.949Z,4.90
2022-07-27T09:22:11.199Z,4.50
2022-07-27T09:26:02.288Z,9.10
2022-07-27T09:29:37.678Z,5.90
2022-07-27T09:33:08.402Z,4.90
2022-07-27T09:36:35.730Z,3.60
2022-07-27T09:40:22.625Z,2.70
2022-07-27T09:47:41.581Z,5.70
2022-07-27T09:51:55.624Z,4.80
2022-07-27T09:55:03.670Z,7.20
2022-07-27T09:58:48.662Z,3.00
2022-07-27T10:02:28.997Z,5.10
2022-07-27T10:05:58.168Z,5.00
2022-07-27T10:09:25.591Z,5.90
2022-07-27T10:12:55.834Z,4.80
2022-07-27T10:16:26.381Z,3.20
2022-07-27T10:19:54.825Z,9.10
2022-07-27T10:23:36.197Z,2.90
2022-07-27T10:27:28.700Z,3.10
2022-07-27T10:31:17.622Z,5.00
2022-07-27T10:34:46.057Z,4.40
2022-07-27T10:38:18.568Z,3.80
2022-07-27T10:41:46.107Z,3.70
2022-07-27T10:45:15.004Z,7.10
2022-07-27T10:48:48.768Z,1.70
2022-07-27T10:52:44.343Z,6.40
2022-07-27T10:56:11.983Z,7.00
2022-07-27T11:00:14.988Z,5.90
2022-07-27T11:03:43.769Z,6.20
2022-07-27T11:07:39.666Z,3.30
2022-07-27T11:11:04.239Z,1.90
2022-07-27T11:14:44.690Z,1.70
2022-07-27T11:18:18.443Z,3.00
2022-07-27T11:21:49.937Z,3.00
2022-07-27T11:25:16.815Z,4.00
2022-07-27T11:28:45.871Z,4.30
2022-07-27T11:32:21.234Z,2.30
2022-07-27T11:35:56.998Z,3.40
2022-07-27T11:43:15.639Z,2.10
2022-07-27T11:46:45.070Z,3.70
2022-07-27T11:50:15.970Z,2.70
2022-07-27T11:53:43.212Z,5.20
2022-07-27T11:57:13.440Z,3.70
2022-07-27T12:00:46.960Z,4.30
2022-07-27T12:04:25.677Z,2.80
2022-07-27T12:07:53.445Z,2.70
2022-07-27T12:11:47.946Z,3.20
2022-07-27T12:15:44.398Z,7.00
2022-07-27T12:19:12.374Z,3.70
2022-07-27T12:22:44.107Z,2.70
2022-07-27T12:26:25.710Z,5.10
2022-07-27T12:30:03.970Z,5.80
2022-07-27T12:33:35.171Z,7.30
2022-07-27T12:37:02.648Z,3.20
2022-07-27T12:40:30.621Z,3.50
2022-07-27T12:44:12.373Z,2.90
2022-07-27T12:47:43.664Z,3.70
2022-07-27T12:51:12.272Z,7.60
2022-07-27T12:54:40.066Z,5.60
2022-07-27T12:58:10.507Z,4.30
2022-07-27T13:01:38.712Z,6.00
2022-07-27T13:05:06.517Z,7.30
2022-07-27T13:08:34.028Z,5.10
2022-07-27T13:12:01.141Z,2.50
2022-07-27T13:15:28.731Z,4.20
2022-07-27T13:18:59.077Z,2.90
2022-07-27T13:22:26.502Z,3.30
2022-07-27T13:25:54.609Z,7.30
2022-07-27T13:29:22.169Z,3.10
2022-07-27T13:32:49.730Z,4.90
2022-07-27T13:36:17.095Z,4.60
2022-07-27T13:39:44.097Z,2.90
2022-07-27T13:43:12.178Z,3.20
2022-07-27T13:46:40.291Z,4.10
2022-07-27T13:50:17.226Z,2.50
2022-07-27T13:53:45.506Z,3.30
2022-07-27T13:57:12.926Z,4.90
2022-07-27T14:00:40.327Z,2.70
2022-07-27T14:04:11.160Z,4.40
2022-07-27T14:07:39.364Z,3.50
2022-07-27T14:11:07.704Z,4.50
2022-07-27T14:14:35.062Z,1.90
2022-07-27T14:18:02.343Z,3.90
2022-07-27T14:21:29.702Z,3.00
2022-07-27T14:24:56.873Z,6.30
2022-07-27T14:28:25.779Z,2.70
2022-07-27T14:31:53.959Z,3.60
2022-07-27T14:35:23.461Z,4.00
2022-07-27T14:38:53.295Z,3.80
2022-07-27T14:42:22.559Z,1.70
2022-07-27T14:45:49.865Z,2.20
2022-07-27T14:49:17.500Z,4.70
2022-07-27T14:52:45.429Z,1.90
2022-07-27T14:56:12.654Z,5.70
2022-07-27T14:59:39.826Z,3.00
2022-07-27T15:03:15.093Z,6.50
2022-07-27T15:06:42.900Z,4.50
2022-07-27T15:10:12.168Z,3.10
2022-07-27T15:13:39.348Z,3.20
2022-07-27T15:17:06.956Z,4.50
2022-07-27T15:20:34.806Z,3.40
2022-07-27T15:24:03.348Z,4.20
2022-07-27T15:27:31.006Z,3.20
2022-07-27T15:30:58.234Z,3.40
2022-07-27T15:34:25.706Z,3.70
2022-07-27T15:37:53.372Z,3.80
2022-07-27T15:41:22.579Z,5.20
2022-07-27T15:44:49.988Z,3.10
2022-07-27T15:48:18.071Z,5.30
2022-07-27T15:51:46.932Z,2.90
2022-07-27T15:55:15.772Z,1.10
2022-07-27T15:58:42.950Z,4.90
2022-07-27T16:02:10.205Z,4.90
2022-07-27T16:05:39.528Z,3.60
2022-07-27T16:09:09.699Z,5.60
2022-07-27T16:12:38.512Z,6.10
2022-07-27T16:16:26.823Z,3.20
2022-07-27T16:19:56.464Z,4.10
2022-07-27T16:23:25.009Z,3.90
2022-07-27T16:26:52.168Z,4.80
2022-07-27T16:30:20.887Z,5.50
2022-07-27T16:33:54.784Z,4.30
2022-07-27T16:37:22.506Z,5.40
2022-07-27T16:40:49.204Z,4.90
2022-07-27T16:44:17.641Z,7.70
2022-07-27T16:47:44.869Z,7.10
2022-07-27T16:51:12.310Z,4.90
2022-07-27T16:54:40.054Z,4.50
2022-07-27T16:58:06.826Z,6.00
2022-07-27T17:01:34.472Z,8.60
2022-07-27T17:05:02.196Z,5.20
2022-07-27T17:08:29.286Z,5.60
2022-07-27T17:11:56.128Z,3.70
2022-07-27T17:15:23.717Z,5.90
2022-07-27T17:18:51.340Z,6.10
2022-07-27T17:22:20.384Z,6.80
2022-07-27T17:25:47.759Z,10.40
2022-07-27T17:29:15.222Z,6.70
2022-07-27T17:32:42.620Z,6.40
2022-07-27T17:36:15.020Z,8.00
2022-07-27T17:39:43.713Z,5.70
2022-07-27T17:43:11.153Z,4.00
2022-07-27T17:46:39.158Z,6.60
2022-07-27T17:50:07.620Z,6.10
2022-07-27T17:53:36.122Z,6.30
2022-07-27T17:57:03.788Z,6.40
2022-07-27T18:00:33.455Z,5.80
2022-07-27T18:04:02.153Z,4.90
2022-07-27T18:07:29.782Z,5.80
2022-07-27T18:11:05.810Z,7.20
2022-07-27T18:14:33.741Z,5.20
2022-07-27T18:18:05.605Z,8.70
2022-07-27T18:21:33.184Z,5.10
2022-07-27T18:25:00.492Z,5.20
2022-07-27T18:28:28.011Z,6.00
2022-07-27T18:31:55.342Z,5.30
2022-07-27T18:35:22.690Z,5.70
2022-07-27T18:38:53.597Z,5.70
2022-07-27T18:42:21.192Z,5.60
2022-07-27T18:45:48.530Z,5.50
2022-07-27T18:49:16.034Z,7.90
2022-07-27T18:52:43.903Z,5.90
2022-07-27T18:56:12.366Z,7.40
2022-07-27T18:59:41.219Z,5.10
2022-07-27T19:03:09.510Z,4.30
2022-07-27T19:06:39.122Z,8.00
2022-07-27T19:10:13.564Z,8.30
2022-07-27T19:13:47.859Z,7.50
2022-07-27T19:17:19.331Z,6.60
2022-07-27T19:20:48.137Z,9.80
2022-07-27T19:24:19.381Z,6.90
2022-07-27T19:27:50.091Z,7.50
2022-07-27T19:31:22.740Z,6.70
2022-07-27T19:34:54.745Z,9.60
2022-07-27T19:38:24.169Z,10.40
2022-07-27T19:41:54.598Z,12.70
2022-07-27T19:45:23.724Z,19.50
2022-07-27T19:48:53.027Z,19.40
2022-07-27T19:52:24.360Z,24.20
2022-07-27T19:55:59.834Z,23.30
2022-07-27T19:59:55.494Z,16.70
2022-07-27T20:03:29.258Z,12.70
2022-07-27T20:07:02.535Z,16.40
2022-07-27T20:10:33.121Z,14.20
2022-07-27T20:14:04.357Z,11.50
2022-07-27T20:17:41.019Z,14.30
2022-07-27T20:21:20.222Z,11.10
2022-07-27T20:24:59.123Z,12.20
2022-07-27T20:28:32.226Z,11.70
2022-07-27T20:32:05.089Z,14.20
2022-07-27T20:35:37.770Z,10.70
2022-07-27T20:39:07.703Z,12.80
2022-07-27T20:42:40.443Z,10.20
2022-07-27T20:46:15.927Z,9.20
2022-07-27T20:49:46.424Z,8.60
2022-07-27T20:53:17.052Z,12.00
2022-07-27T20:56:53.858Z,8.20
2022-07-27T21:00:39.719Z,16.50
2022-07-27T21:04:11.749Z,8.30
2022-07-27T21:07:41.182Z,10.50
2022-07-27T21:11:11.768Z,8.60
2022-07-27T21:14:39.761Z,8.20
2022-07-27T21:18:09.571Z,9.80
2022-07-27T21:21:37.942Z,10.10
2022-07-27T21:25:09.791Z,10.50
2022-07-27T21:28:39.347Z,8.90
2022-07-27T21:32:11.317Z,9.40
2022-07-27T21:35:39.409Z,10.70
2022-07-27T21:39:07.248Z,9.80
2022-07-27T21:42:37.709Z,11.40
2022-07-27T21:46:05.357Z,10.80
2022-07-27T21:49:35.061Z,12.00
2022-07-27T21:53:05.960Z,11.10
2022-07-27T21:56:41.776Z,7.80
2022-07-27T22:00:13.539Z,9.10
2022-07-27T22:03:41.160Z,11.50
2022-07-27T22:07:19.078Z,10.60
2022-07-27T22:10:47.601Z,9.50
2022-07-27T22:14:14.925Z,15.70
2022-07-27T22:17:45.959Z,13.30
2022-07-27T22:21:17.762Z,17.80
2022-07-27T22:24:45.831Z,11.30
2022-07-27T22:28:13.142Z,13.20
2022-07-27T22:31:40.512Z,14.70
2022-07-27T22:35:09.143Z,14.90
2022-07-27T22:38:37.473Z,11.90
2022-07-27T22:42:07.481Z,14.10
2022-07-27T22:45:35.456Z,13.00
2022-07-27T22:49:03.384Z,12.90
2022-07-27T22:52:33.260Z,12.90
2022-07-27T22:56:00.679Z,9.30
2022-07-27T22:59:29.611Z,10.00
2022-07-27T23:02:57.506Z,11.00
2022-07-27T23:06:26.535Z,11.20
2022-07-27T23:09:57.055Z,11.60
2022-07-27T23:13:24.953Z,15.90
2022-07-27T23:17:01.388Z,13.90
2022-07-27T23:20:29.774Z,12.50
2022-07-27T23:23:57.529Z,12.20
2022-07-27T23:27:27.288Z,16.60
2022-07-27T23:30:54.887Z,13.10
2022-07-27T23:34:22.594Z,10.30
2022-07-27T23:37:56.604Z,14.50
2022-07-27T23:41:24.275Z,11.70
2022-07-27T23:44:52.868Z,14.50
2022-07-27T23:48:20.743Z,12.20
2022-07-27T23:51:52.546Z,12.80
2022-07-27T23:55:27.001Z,15.10
2022-07-27T23:59:01.848Z,10.80
